KDCA/DCA METAR and TAF weather

Enter ICAO airport designator
Station Type Date Time Source
KDCA METAR 2021/05/11 00:52 UTC NOAA

KDCA 110052Z 34006KT 10SM FEW070 FEW250 15/02 A3003 RMK AO2 SLP171 T01500022


Station Type Date Time Source
KDCA Decoded METAR 2021/05/11 00:52 UTC NOAA

WASHINGTON NATIONAL AIRPORT , VA, United States (KDCA) 38-51N 077-02W 18M
May 10, 2021 - 08:52 PM EDT / 2021.05.11 0052 UTC
Wind: from the NNW (340 degrees) at 7 MPH (6 KT):0
Visibility: 10 mile(s):0
Sky conditions: mostly clear
Temperature: 59.0 F (15.0 C)
Dew Point: 36.0 F (2.2 C)
Relative Humidity: 41%
Pressure (altimeter): 30.03 in. Hg (1016 hPa)
ob: KDCA 110052Z 34006KT 10SM FEW070 FEW250 15/02 A3003 RMK AO2 SLP171 T01500022
cycle: 1

Station Type Date Time Source
KDCA TAF 2021/05/10 23:06 UTC NOAA

TAF
AMD KDCA 102303Z 1023/1124 33007KT P6SM FEW250
FM111000 VRB03KT P6SM SCT090 BKN100
FM111600 27007KT P6SM FEW060 FEW090
FM112100 29010G21KT P6SM SCT050 BKN070

Example: see airport list